createdAt,value
2022-09-22T00:00:14.899Z,98835.00
2022-09-22T00:03:02.523Z,98834.00
2022-09-22T00:06:28.784Z,98840.00
2022-09-22T00:09:15.505Z,98846.00
2022-09-22T00:11:51.607Z,98834.00
2022-09-22T00:14:38.113Z,98831.00
2022-09-22T00:17:40.827Z,98824.00
2022-09-22T00:20:36.053Z,98832.00
2022-09-22T00:23:21.965Z,98817.00
2022-09-22T00:26:53.354Z,98823.00
2022-09-22T00:29:32.916Z,98815.00
2022-09-22T00:32:14.141Z,98815.00
2022-09-22T00:34:54.477Z,98809.00
2022-09-22T00:37:30.671Z,98807.00
2022-09-22T00:40:06.005Z,98793.00
2022-09-22T00:42:47.640Z,98814.00
2022-09-22T00:45:25.588Z,98776.00
2022-09-22T00:48:07.813Z,98814.00
2022-09-22T00:50:51.594Z,98811.00
2022-09-22T00:56:24.128Z,98804.00
2022-09-22T00:59:07.197Z,98786.00
2022-09-22T01:01:43.746Z,98802.00
2022-09-22T01:04:19.765Z,98805.00
2022-09-22T01:07:01.837Z,98768.00
2022-09-22T01:09:37.420Z,98779.00
2022-09-22T01:12:14.260Z,98762.00
2022-09-22T01:15:07.934Z,98771.00
2022-09-22T01:18:01.385Z,98784.00
2022-09-22T01:21:13.698Z,98765.00
2022-09-22T01:24:18.121Z,98792.00
2022-09-22T01:27:12.523Z,98780.00
2022-09-22T01:30:27.266Z,98787.00
2022-09-22T01:33:23.800Z,98785.00
2022-09-22T01:36:16.583Z,98786.00
2022-09-22T01:39:03.885Z,98773.00
2022-09-22T01:41:58.417Z,98765.00
2022-09-22T01:45:12.658Z,98770.00
2022-09-22T01:47:50.948Z,98768.00
2022-09-22T01:50:30.289Z,98785.00
2022-09-22T01:53:24.769Z,98775.00
2022-09-22T01:56:23.927Z,98769.00
2022-09-22T01:59:09.654Z,98777.00
2022-09-22T02:01:57.477Z,98778.00
2022-09-22T02:04:35.896Z,98779.00
2022-09-22T02:07:16.166Z,98785.00
2022-09-22T02:10:01.242Z,98772.00
2022-09-22T02:12:38.074Z,98760.00
2022-09-22T02:15:28.345Z,98788.00
2022-09-22T02:18:06.948Z,98783.00
2022-09-22T02:20:42.099Z,98779.00
2022-09-22T02:23:26.156Z,98776.00
2022-09-22T02:26:08.634Z,98774.00
2022-09-22T02:28:50.398Z,98783.00
2022-09-22T02:31:38.652Z,98758.00
2022-09-22T02:37:23.955Z,98769.00
2022-09-22T02:40:12.099Z,98749.00
2022-09-22T02:42:51.467Z,98761.00
2022-09-22T02:45:40.431Z,98764.00
2022-09-22T02:48:53.109Z,98765.00
2022-09-22T02:51:31.711Z,98749.00
2022-09-22T02:54:07.132Z,98759.00
2022-09-22T02:56:43.499Z,98758.00
2022-09-22T02:59:21.694Z,98764.00
2022-09-22T03:02:01.278Z,98737.00
2022-09-22T03:04:39.133Z,98761.00
2022-09-22T03:07:13.750Z,98758.00
2022-09-22T03:10:12.141Z,98758.00
2022-09-22T03:13:50.013Z,98763.00
2022-09-22T03:16:50.647Z,98739.00
2022-09-22T03:19:36.039Z,98756.00
2022-09-22T03:22:13.305Z,98755.00
2022-09-22T03:24:48.902Z,98748.00
2022-09-22T03:27:23.956Z,98734.00
2022-09-22T03:29:59.313Z,98753.00
2022-09-22T03:35:53.817Z,98746.00
2022-09-22T03:38:30.711Z,98736.00
2022-09-22T03:41:05.314Z,98758.00
2022-09-22T03:43:40.111Z,98756.00
2022-09-22T03:46:33.807Z,98726.00
2022-09-22T03:49:13.694Z,98742.00
2022-09-22T03:51:58.397Z,98740.00
2022-09-22T03:55:07.063Z,98748.00
2022-09-22T04:00:49.424Z,98717.00
2022-09-22T04:03:24.973Z,98725.00
2022-09-22T04:06:49.189Z,98746.00
2022-09-22T04:09:53.982Z,98740.00
2022-09-22T04:12:31.527Z,98736.00
2022-09-22T04:18:41.207Z,98740.00
2022-09-22T04:21:19.024Z,98734.00
2022-09-22T04:23:55.420Z,98723.00
2022-09-22T04:26:31.764Z,98734.00
2022-09-22T04:29:44.271Z,98746.00
2022-09-22T04:32:31.345Z,98730.00
2022-09-22T04:38:53.452Z,98751.00
2022-09-22T04:41:31.073Z,98750.00
2022-09-22T04:44:06.774Z,98758.00
2022-09-22T04:46:46.761Z,98731.00
2022-09-22T04:49:25.298Z,98721.00
2022-09-22T04:52:04.999Z,98740.00
2022-09-22T04:54:43.665Z,98746.00
2022-09-22T04:57:26.886Z,98737.00
2022-09-22T05:00:01.164Z,98730.00
2022-09-22T05:02:37.715Z,98732.00
2022-09-22T05:08:10.405Z,98757.00
2022-09-22T05:10:57.354Z,98755.00
2022-09-22T05:13:34.578Z,98755.00
2022-09-22T05:22:05.156Z,98753.00
2022-09-22T05:25:44.067Z,98751.00
2022-09-22T05:31:28.695Z,98736.00
2022-09-22T05:34:03.287Z,98748.00
2022-09-22T05:36:42.995Z,98740.00
2022-09-22T05:39:18.180Z,98776.00
2022-09-22T05:42:26.690Z,98763.00
2022-09-22T05:45:16.278Z,98764.00
2022-09-22T05:47:51.580Z,98742.00
2022-09-22T05:50:26.742Z,98754.00
2022-09-22T05:53:18.893Z,98759.00
2022-09-22T06:00:01.559Z,98760.00
2022-09-22T06:03:00.666Z,98764.00
2022-09-22T06:09:24.897Z,98768.00
2022-09-22T06:11:59.723Z,98766.00
2022-09-22T06:14:51.186Z,98747.00
2022-09-22T06:20:20.265Z,98772.00
2022-09-22T06:23:15.028Z,98774.00
2022-09-22T06:28:39.186Z,98773.00
2022-09-22T06:35:12.982Z,98774.00
2022-09-22T06:38:24.602Z,98774.00
2022-09-22T06:41:07.662Z,98782.00
2022-09-22T06:43:43.967Z,98781.00
2022-09-22T06:47:04.055Z,98779.00
2022-09-22T06:49:42.343Z,98778.00
2022-09-22T06:55:25.802Z,98765.00
2022-09-22T06:58:03.819Z,98794.00
2022-09-22T07:00:42.235Z,98780.00
2022-09-22T07:03:22.617Z,98777.00
2022-09-22T07:06:04.197Z,98763.00
2022-09-22T07:08:55.713Z,98756.00
2022-09-22T07:11:40.267Z,98776.00
2022-09-22T07:14:42.196Z,98771.00
2022-09-22T07:17:37.471Z,98771.00
2022-09-22T07:20:15.903Z,98759.00
2022-09-22T07:23:01.149Z,98754.00
2022-09-22T07:25:36.746Z,98761.00
2022-09-22T07:28:25.249Z,98769.00
2022-09-22T07:31:18.245Z,98747.00
2022-09-22T07:34:23.039Z,98764.00
2022-09-22T07:37:53.275Z,98768.00
2022-09-22T07:40:44.320Z,98773.00
2022-09-22T07:43:30.823Z,98758.00
2022-09-22T07:46:06.797Z,98773.00
2022-09-22T07:48:48.511Z,98761.00
2022-09-22T07:51:27.282Z,98778.00
2022-09-22T07:54:10.547Z,98771.00
2022-09-22T07:56:47.070Z,98769.00
2022-09-22T07:59:43.986Z,98772.00
2022-09-22T08:05:20.037Z,98775.00
2022-09-22T08:07:57.482Z,98764.00
2022-09-22T08:10:37.143Z,98765.00
2022-09-22T08:13:14.411Z,98759.00
2022-09-22T08:15:58.343Z,98765.00
2022-09-22T08:18:40.153Z,98771.00
2022-09-22T08:21:27.971Z,98776.00
2022-09-22T08:24:25.010Z,98768.00
2022-09-22T08:29:49.670Z,98766.00
2022-09-22T08:32:31.028Z,98768.00
2022-09-22T08:35:10.031Z,98769.00
2022-09-22T08:37:55.486Z,98762.00
2022-09-22T08:40:56.515Z,98763.00
2022-09-22T08:43:49.114Z,98756.00
2022-09-22T08:46:30.501Z,98759.00
2022-09-22T08:49:25.061Z,98759.00
2022-09-22T08:52:08.164Z,98760.00
2022-09-22T08:54:50.803Z,98770.00
2022-09-22T08:57:50.889Z,98766.00
2022-09-22T09:00:28.723Z,98745.00
2022-09-22T09:03:23.256Z,98765.00
2022-09-22T09:06:16.582Z,98754.00
2022-09-22T09:09:07.577Z,98766.00
2022-09-22T09:12:07.662Z,98768.00
2022-09-22T09:15:03.319Z,98762.00
2022-09-22T09:17:51.567Z,98765.00
2022-09-22T09:20:37.157Z,98772.00
2022-09-22T09:25:22.149Z,98746.00
2022-09-22T09:26:24.623Z,98755.00
2022-09-22T09:29:04.970Z,98749.00
2022-09-22T09:31:55.766Z,98750.00
2022-09-22T09:35:19.868Z,98754.00
2022-09-22T09:38:07.224Z,98743.00
2022-09-22T09:41:12.607Z,98741.00
2022-09-22T09:43:53.314Z,98745.00
2022-09-22T09:46:42.976Z,98737.00
2022-09-22T09:49:20.599Z,98733.00
2022-09-22T09:52:03.160Z,98731.00
2022-09-22T09:54:54.590Z,98746.00
2022-09-22T10:01:26.108Z,98729.00
2022-09-22T10:08:24.753Z,98740.00
2022-09-22T10:14:55.868Z,98720.00
2022-09-22T10:17:49.197Z,98717.00
2022-09-22T10:20:34.117Z,98722.00
2022-09-22T10:23:24.255Z,98725.00
2022-09-22T10:26:20.302Z,98708.00
2022-09-22T10:33:30.129Z,98718.00
2022-09-22T10:40:08.854Z,98720.00
2022-09-22T10:43:48.934Z,98714.00
2022-09-22T10:54:28.610Z,98721.00
2022-09-22T11:01:14.342Z,98701.00
2022-09-22T11:23:19.051Z,98685.00
2022-09-22T11:33:44.147Z,98691.00
2022-09-22T11:39:32.807Z,98676.00
2022-09-22T11:42:33.648Z,98682.00
2022-09-22T11:49:11.354Z,98679.00
2022-09-22T11:52:11.729Z,98674.00
2022-09-22T11:55:19.149Z,98682.00
2022-09-22T12:01:44.519Z,98672.00
2022-09-22T12:12:18.583Z,98658.00
2022-09-22T12:15:49.172Z,98653.00
2022-09-22T12:19:23.721Z,98658.00
2022-09-22T12:38:11.910Z,98649.00
2022-09-22T12:48:43.417Z,98650.00
2022-09-22T12:51:56.926Z,98650.00
2022-09-22T12:54:52.851Z,98639.00
2022-09-22T13:00:56.480Z,98629.00
2022-09-22T13:11:50.161Z,98627.00
2022-09-22T13:32:30.574Z,98623.00
2022-09-22T13:46:12.247Z,98622.00
2022-09-22T13:49:27.939Z,98608.00
2022-09-22T13:52:19.385Z,98602.00
2022-09-22T13:55:33.522Z,98608.00
2022-09-22T13:58:25.623Z,98607.00
2022-09-22T14:01:39.760Z,98597.00
2022-09-22T14:04:58.026Z,98602.00
2022-09-22T14:08:11.657Z,98602.00
2022-09-22T14:10:54.048Z,98589.00
2022-09-22T14:13:58.953Z,98594.00
2022-09-22T14:31:15.381Z,98584.00
2022-09-22T14:33:49.553Z,98591.00
2022-09-22T14:36:26.397Z,98577.00
2022-09-22T14:39:09.905Z,98564.00
2022-09-22T14:41:51.415Z,98584.00
2022-09-22T14:44:46.179Z,98582.00
2022-09-22T14:47:28.199Z,98583.00
2022-09-22T14:50:14.429Z,98570.00
2022-09-22T14:52:55.141Z,98577.00
2022-09-22T14:55:34.192Z,98579.00
2022-09-22T14:58:13.094Z,98578.00
2022-09-22T15:01:15.213Z,98574.00
2022-09-22T15:03:57.051Z,98571.00
2022-09-22T15:06:39.210Z,98578.00
2022-09-22T15:09:23.126Z,98563.00
2022-09-22T15:12:00.768Z,98570.00
2022-09-22T15:14:45.759Z,98566.00
2022-09-22T15:17:56.978Z,98567.00
2022-09-22T15:31:40.667Z,98561.00
2022-09-22T15:38:19.881Z,98555.00
2022-09-22T15:40:56.277Z,98552.00
2022-09-22T15:47:40.244Z,98546.00
2022-09-22T15:51:05.125Z,98542.00
2022-09-22T15:53:47.148Z,98540.00
2022-09-22T15:56:26.202Z,98537.00
2022-09-22T15:59:19.844Z,98525.00
2022-09-22T16:05:40.885Z,98545.00
2022-09-22T16:08:38.729Z,98543.00
2022-09-22T16:14:32.479Z,98555.00
2022-09-22T16:21:37.868Z,98540.00
2022-09-22T16:24:59.195Z,98535.00
2022-09-22T16:27:57.145Z,98548.00
2022-09-22T16:30:36.575Z,98553.00
2022-09-22T16:43:47.905Z,98545.00
2022-09-22T16:46:34.064Z,98542.00
2022-09-22T16:49:12.719Z,98544.00
2022-09-22T16:52:48.048Z,98548.00
2022-09-22T16:55:23.101Z,98537.00
2022-09-22T16:58:09.263Z,98529.00
2022-09-22T17:00:46.355Z,98559.00
2022-09-22T17:03:21.469Z,98534.00
2022-09-22T17:06:06.600Z,98537.00
2022-09-22T17:08:44.025Z,98522.00
2022-09-22T17:11:21.685Z,98538.00
2022-09-22T17:13:57.003Z,98543.00
2022-09-22T17:16:35.584Z,98536.00
2022-09-22T17:19:17.471Z,98527.00
2022-09-22T17:21:59.010Z,98542.00
2022-09-22T17:24:34.569Z,98538.00
2022-09-22T17:27:10.340Z,98517.00
2022-09-22T17:29:45.254Z,98544.00
2022-09-22T17:32:28.240Z,98547.00
2022-09-22T17:35:18.391Z,98545.00
2022-09-22T17:37:55.377Z,98509.00
2022-09-22T18:03:57.916Z,98547.00
2022-09-22T18:07:41.484Z,98547.00
2022-09-22T18:14:49.044Z,98548.00
2022-09-22T18:51:24.396Z,98535.00
2022-09-22T18:54:29.178Z,98554.00
2022-09-22T18:57:06.778Z,98556.00
2022-09-22T18:59:42.408Z,98536.00
2022-09-22T19:02:23.428Z,98565.00
2022-09-22T19:13:02.042Z,98559.00
2022-09-22T19:15:40.199Z,98566.00
2022-09-22T19:18:25.368Z,98564.00
2022-09-22T19:24:55.684Z,98527.00
2022-09-22T19:27:40.150Z,98544.00
2022-09-22T19:37:43.551Z,98561.00
2022-09-22T19:40:25.437Z,98541.00
2022-09-22T19:43:07.488Z,98554.00
2022-09-22T19:45:51.846Z,98549.00
2022-09-22T19:48:27.120Z,98556.00
2022-09-22T19:51:38.418Z,98545.00
2022-09-22T19:54:17.369Z,98548.00
2022-09-22T19:56:56.592Z,98545.00
2022-09-22T20:20:54.281Z,98512.00
2022-09-22T20:23:33.409Z,98527.00
2022-09-22T20:26:14.996Z,98530.00
2022-09-22T20:29:06.051Z,98512.00
2022-09-22T20:31:41.530Z,98521.00
2022-09-22T20:34:29.515Z,98529.00
2022-09-22T20:37:45.928Z,98514.00
2022-09-22T20:40:41.948Z,98530.00
2022-09-22T20:43:56.429Z,98526.00
2022-09-22T20:47:05.270Z,98519.00
2022-09-22T20:49:52.179Z,98511.00
2022-09-22T20:52:40.762Z,98506.00
2022-09-22T21:06:05.592Z,98510.00
2022-09-22T21:09:07.798Z,98514.00
2022-09-22T21:11:42.104Z,98516.00
2022-09-22T21:14:19.173Z,98517.00
2022-09-22T21:20:08.483Z,98522.00
2022-09-22T21:22:51.269Z,98498.00
2022-09-22T21:26:15.236Z,98517.00
2022-09-22T21:33:12.593Z,98509.00
2022-09-22T21:35:47.197Z,98505.00
2022-09-22T22:03:10.810Z,98491.00
2022-09-22T22:05:48.502Z,98500.00
2022-09-22T22:09:19.385Z,98493.00
2022-09-22T22:12:14.379Z,98480.00
2022-09-22T22:14:50.613Z,98496.00
2022-09-22T22:17:31.286Z,98460.00
2022-09-22T22:20:07.135Z,98484.00
2022-09-22T22:22:47.052Z,98458.00
2022-09-22T22:29:16.093Z,98463.00
2022-09-22T22:31:58.637Z,98469.00
2022-09-22T22:34:34.312Z,98480.00
2022-09-22T22:37:15.053Z,98461.00
2022-09-22T22:43:49.251Z,98461.00
2022-09-22T22:50:12.803Z,98435.00
2022-09-22T22:56:44.344Z,98476.00
2022-09-22T22:59:57.295Z,98460.00
2022-09-22T23:02:33.073Z,98454.00
2022-09-22T23:05:15.532Z,98439.00
2022-09-22T23:07:50.438Z,98447.00
2022-09-22T23:14:18.413Z,98450.00
2022-09-22T23:20:42.088Z,98434.00
2022-09-22T23:27:09.809Z,98438.00
2022-09-22T23:29:45.736Z,98430.00
2022-09-22T23:32:32.570Z,98425.00
2022-09-22T23:35:09.291Z,98426.00
2022-09-22T23:38:20.419Z,98436.00
2022-09-22T23:40:54.917Z,98439.00
2022-09-22T23:43:31.923Z,98430.00
2022-09-22T23:46:31.182Z,98428.00
2022-09-22T23:49:14.861Z,98418.00
2022-09-22T23:51:56.757Z,98421.00
2022-09-22T23:54:35.080Z,98419.00
2022-09-22T23:57:09.403Z,98423.00
2022-09-22T23:59:44.198Z,98421.00
